Darstellungsparameter: Aktuell verwendete Einstellungen:
Skalierung der Graphiken ... ?
xyx+y,   Skalierungsfaktor:      Skalierung: Modus: x, Faktor: 1
Darstellungszeitraum ... ?
Vom - - bis: - -   Zeitraum: 14.04.2009 - 16.04.2009
Min/Max/Avg-Anzeige ... ?
Zeige MMA aktuell
Zeige MMA Monat
Zeige MMA alles
Zeige --A aktuell
Zeige --A Monat
Zeige --A alles
Keine MMA-Anzeige
MMA:
Average (ber die Originaldaten)
MMA-Basis: 14.04.2009 - 16.04.2009
Quicknavigation für Darstellung... ?
Tage:      1T, 2T, 3T, 5T -1T -2T -3T -5T +1T +2T +3T +5T
Wochen: 1W, 2W, 3W -1W -2W -3W +1W +2W +3W
Monate: 1M, 3M, 6M -1M -3M -6M +1M +3M +6M
Jahre:    1J, 3J, 5J, 10J -1J -3J -5J -10J +1J +3J +5J +10J
Nutze für die Darstellung ... ?
Originaldaten oder Mittelwerte auf ...
Stundenbasis Tagesbasis Wochenbasis
Monatsbasis Jahresbasis      Datenbasis: Original-Daten
Darstellen als:
Statistik (Auto) Statistik J:M      Darstellung:
Zur Graphik,    zurück zur Übersicht aller Sensoren.
 
Tabellarische Datenbersicht: ?
 
Sensor: Nr:Datum:Temp:Abs-Feuchte:Windchill:Wind:
Aussen-T/F 1 14-04-2009 00:10:41 13.7 C 9 g/m*3 13.7 C 0 km/h
2 14-04-2009 00:22:41 13.5 C 8.89 g/m*3 13.5 C 0 km/h
3 14-04-2009 00:34:41 13.3 C 8.66 g/m*3 13.3 C 0 km/h
4 14-04-2009 00:46:41 13.2 C 8.73 g/m*3 13.2 C 0 km/h
5 14-04-2009 00:58:41 13.1 C 8.67 g/m*3 13.1 C 0 km/h
6 14-04-2009 01:10:41 12.8 C 8.74 g/m*3 12.8 C 0 km/h
7 14-04-2009 01:22:41 12.5 C 8.69 g/m*3 12.5 C 0 km/h
8 14-04-2009 01:34:41 12.3 C 8.58 g/m*3 12.3 C 0 km/h
9 14-04-2009 01:46:41 12.1 C 8.58 g/m*3 12.1 C 0 km/h
10 14-04-2009 01:58:41 11.9 C 8.58 g/m*3 11.9 C 0 km/h
11 14-04-2009 02:10:41 11.8 C 8.63 g/m*3 11.8 C 0 km/h
12 14-04-2009 02:22:41 11.6 C 8.52 g/m*3 11.6 C 0 km/h
13 14-04-2009 02:34:41 11.4 C 8.42 g/m*3 11.4 C 0 km/h
14 14-04-2009 02:46:41 11.3 C 8.47 g/m*3 11.3 C 0 km/h
15 14-04-2009 02:58:41 11.1 C 8.36 g/m*3 11.1 C 0 km/h
16 14-04-2009 03:10:42 11 C 8.31 g/m*3 11 C 0 km/h
17 14-04-2009 03:22:42 10.8 C 8.3 g/m*3 10.8 C 0 km/h
18 14-04-2009 03:34:42 10.7 C 8.25 g/m*3 10.7 C 0 km/h
19 14-04-2009 03:46:42 10.7 C 8.25 g/m*3 10.7 C 0 km/h
20 14-04-2009 03:58:42 10.5 C 8.15 g/m*3 10.5 C 0 km/h
21 14-04-2009 04:10:42 10.4 C 8.1 g/m*3 10.4 C 0 km/h
22 14-04-2009 04:22:42 10.3 C 8.04 g/m*3 10.3 C 0 km/h
23 14-04-2009 04:34:42 10 C 7.99 g/m*3 10 C 0 km/h
24 14-04-2009 04:46:42 9.8 C 7.98 g/m*3 9.8 C 0 km/h
25 14-04-2009 04:58:42 9.7 C 7.93 g/m*3 9.7 C 0 km/h
Sensor: Nr:Datum:Temp:Abs-Feuchte:Windchill:Wind:
Aussen-T/F 26 14-04-2009 05:10:42 9.7 C 8.02 g/m*3 9.7 C 0 km/h
27 14-04-2009 05:22:42 9.7 C 8.02 g/m*3 9.7 C 0 km/h
28 14-04-2009 05:34:42 9.7 C 8.02 g/m*3 9.7 C 0 km/h
29 14-04-2009 05:46:42 9.8 C 8.16 g/m*3 9.8 C 0 km/h
30 14-04-2009 05:58:42 9.8 C 8.07 g/m*3 9.8 C 0 km/h
31 14-04-2009 06:10:42 9.8 C 8.07 g/m*3 9.8 C 0 km/h
32 14-04-2009 06:22:42 9.7 C 8.02 g/m*3 9.7 C 0 km/h
33 14-04-2009 06:34:42 9.8 C 8.07 g/m*3 9.8 C 0 km/h
34 14-04-2009 06:46:42 9.6 C 7.97 g/m*3 9.6 C 0 km/h
35 14-04-2009 06:58:42 9.6 C 7.97 g/m*3 9.6 C 0 km/h
36 14-04-2009 07:10:43 9.7 C 8.02 g/m*3 9.7 C 0 km/h
37 14-04-2009 07:22:43 9.9 C 8.12 g/m*3 9.9 C 0 km/h
38 14-04-2009 07:34:28 9.7 C 7.93 g/m*3 9.7 C 0 km/h
39 14-04-2009 07:46:28 9.3 C 7.73 g/m*3 9.3 C 0 km/h
40 14-04-2009 07:58:28 9.3 C 7.82 g/m*3 9.3 C 0 km/h
41 14-04-2009 08:10:28 9.4 C 7.96 g/m*3 9.4 C 0 km/h
42 14-04-2009 08:22:28 9.7 C 8.11 g/m*3 9.7 C 0 km/h
43 14-04-2009 08:34:27 10.1 C 8.13 g/m*3 10.1 C 0 km/h
44 14-04-2009 08:46:27 9.9 C 8.03 g/m*3 9.9 C 0 km/h
45 14-04-2009 08:58:27 10.1 C 7.94 g/m*3 10.1 C 0 km/h
46 14-04-2009 09:10:27 10.1 C 7.94 g/m*3 10.1 C 0 km/h
47 14-04-2009 09:22:27 10.1 C 7.94 g/m*3 10.1 C 0 km/h
48 14-04-2009 09:34:27 10.2 C 7.99 g/m*3 10.2 C 0 km/h
49 14-04-2009 09:46:27 10.6 C 8.2 g/m*3 10.6 C 0 km/h
50 14-04-2009 09:58:27 11 C 8.21 g/m*3 11 C 0 km/h
Sensor: Nr:Datum:Temp:Abs-Feuchte:Windchill:Wind:
Aussen-T/F 51 14-04-2009 10:10:27 11.4 C 8.31 g/m*3 11.4 C 0 km/h
52 14-04-2009 10:22:26 12 C 8.53 g/m*3 12 C 0 km/h
53 14-04-2009 10:34:26 12.4 C 8.41 g/m*3 12.4 C 0 km/h
54 14-04-2009 10:46:27 12.8 C 8.62 g/m*3 12.8 C 0 km/h
55 14-04-2009 10:58:27 13.3 C 8.9 g/m*3 13.3 C 0 km/h
56 14-04-2009 11:10:26 13.7 C 8.88 g/m*3 13.7 C 0 km/h
57 14-04-2009 11:22:26 13.8 C 8.82 g/m*3 13.8 C 0 km/h
58 14-04-2009 11:34:25 14 C 8.68 g/m*3 14 C 0 km/h
59 14-04-2009 11:46:26 14.3 C 8.72 g/m*3 14.3 C 0 km/h
60 14-04-2009 11:58:27 14.8 C 8.87 g/m*3 14.8 C 0 km/h
61 14-04-2009 12:10:25 15.8 C 8.88 g/m*3 15.8 C 0 km/h
62 14-04-2009 12:22:25 16.6 C 8.48 g/m*3 16.6 C 0 km/h
63 14-04-2009 12:34:26 16.1 C 8.64 g/m*3 16.1 C 0 km/h
64 14-04-2009 12:46:25 16.3 C 8.74 g/m*3 16.3 C 0 km/h
65 14-04-2009 12:58:25 16.7 C 8.81 g/m*3 16.7 C 0 km/h
66 14-04-2009 13:10:25 17.7 C 8.6 g/m*3 17.7 C 0 km/h
67 14-04-2009 13:22:25 18.8 C 8.21 g/m*3 18.8 C 0 km/h
68 14-04-2009 13:34:25 19.6 C 7.93 g/m*3 19.6 C 0 km/h
69 14-04-2009 13:46:24 20.4 C 7.96 g/m*3 20.4 C 0 km/h
70 14-04-2009 13:58:24 21.2 C 7.78 g/m*3 21.2 C 0 km/h
71 14-04-2009 14:10:25 22.2 C 7.66 g/m*3 22.2 C 0 km/h
72 14-04-2009 14:22:24 23.1 C 7.44 g/m*3 23.1 C 0 km/h
73 14-04-2009 14:34:24 23.7 C 7.91 g/m*3 23.7 C 0 km/h
74 14-04-2009 14:46:24 24.5 C 7.61 g/m*3 24.5 C 0 km/h
75 14-04-2009 14:58:24 24.9 C 7.55 g/m*3 24.9 C 0 km/h
Sensor: Nr:Datum:Temp:Abs-Feuchte:Windchill:Wind:
Aussen-T/F 76 14-04-2009 15:10:24 25.6 C 7.62 g/m*3 25.6 C 0 km/h
77 14-04-2009 15:22:24 25.6 C 7.14 g/m*3 25.6 C 0 km/h
78 14-04-2009 15:34:23 25.8 C 6.98 g/m*3 25.8 C 0 km/h
79 14-04-2009 15:46:24 26.4 C 6.47 g/m*3 26.4 C 0 km/h
80 14-04-2009 15:58:24 27.2 C 6.77 g/m*3 27.2 C 0 km/h
81 14-04-2009 16:10:23 26.7 C 5.82 g/m*3 26.7 C 0 km/h
82 14-04-2009 16:22:23 27.3 C 5.49 g/m*3 27.3 C 0 km/h
83 14-04-2009 16:34:23 27.3 C 5.49 g/m*3 27.3 C 0 km/h
84 14-04-2009 16:46:23 27 C 5.4 g/m*3 27 C 0 km/h
85 14-04-2009 16:58:24 28.4 C 5.84 g/m*3 28.4 C 0 km/h
86 14-04-2009 17:10:22 28.4 C 5.56 g/m*3 28.4 C 0 km/h
87 14-04-2009 17:22:22 27.9 C 5.41 g/m*3 27.9 C 0 km/h
88 14-04-2009 17:34:23 27.4 C 5.26 g/m*3 27.4 C 0 km/h
89 14-04-2009 17:46:22 26.6 C 5.03 g/m*3 26.6 C 0 km/h
90 14-04-2009 17:58:22 26.5 C 5.26 g/m*3 26.5 C 0 km/h
91 14-04-2009 18:10:22 27.3 C 5.23 g/m*3 27.3 C 0 km/h
92 14-04-2009 18:22:22 26 C 4.87 g/m*3 26 C 0 km/h
93 14-04-2009 18:34:22 25.1 C 5.32 g/m*3 25.1 C 0 km/h
94 14-04-2009 18:46:21 24.8 C 5.24 g/m*3 24.8 C 0 km/h
95 14-04-2009 18:58:21 24.2 C 5.5 g/m*3 24.2 C 0 km/h
96 14-04-2009 19:10:22 24.7 C 5.88 g/m*3 24.7 C 0 km/h
97 14-04-2009 19:22:21 22.8 C 5.49 g/m*3 22.8 C 0 km/h
98 14-04-2009 19:34:21 22.5 C 5.79 g/m*3 22.5 C 0 km/h
99 14-04-2009 19:46:21 22.1 C 5.86 g/m*3 22.1 C 0 km/h
100 14-04-2009 19:58:21 21.4 C 6.19 g/m*3 21.4 C 0 km/h
Sensor: Nr:Datum:Temp:Abs-Feuchte:Windchill:Wind:
Aussen-T/F 101 14-04-2009 20:10:21 20.5 C 6.41 g/m*3 20.5 C 0 km/h
102 14-04-2009 20:22:21 19.3 C 6.3 g/m*3 19.3 C 0 km/h
103 14-04-2009 20:34:20 18.5 C 6.17 g/m*3 18.5 C 0 km/h
104 14-04-2009 20:46:21 17.9 C 6.11 g/m*3 17.9 C 0 km/h
105 14-04-2009 20:58:21 17.7 C 6.19 g/m*3 17.7 C 0 km/h
106 14-04-2009 21:10:21 17.4 C 6.52 g/m*3 17.4 C 0 km/h
107 14-04-2009 21:22:20 17.3 C 6.63 g/m*3 17.3 C 0 km/h
108 14-04-2009 21:34:20 17.2 C 6.74 g/m*3 17.2 C 0 km/h
109 14-04-2009 21:46:20 16.9 C 6.47 g/m*3 16.9 C 0 km/h
110 14-04-2009 21:58:20 16.6 C 6.36 g/m*3 16.6 C 0 km/h
111 14-04-2009 22:10:20 16.3 C 6.24 g/m*3 16.3 C 0 km/h
112 14-04-2009 22:22:19 15.9 C 6.37 g/m*3 15.9 C 0 km/h
113 14-04-2009 22:34:19 15.7 C 6.42 g/m*3 15.7 C 0 km/h
114 14-04-2009 22:46:20 15.4 C 6.31 g/m*3 15.4 C 0 km/h
115 14-04-2009 22:58:20 15.1 C 6.45 g/m*3 15.1 C 0 km/h
116 14-04-2009 23:10:19 14.6 C 6.76 g/m*3 14.6 C 0 km/h
117 14-04-2009 23:22:19 14.3 C 6.63 g/m*3 14.3 C 0 km/h
118 14-04-2009 23:34:19 14.2 C 6.72 g/m*3 14.2 C 0 km/h
119 14-04-2009 23:46:19 13.9 C 6.71 g/m*3 13.9 C 0 km/h
120 14-04-2009 23:58:19 13.8 C 6.67 g/m*3 13.8 C 0 km/h
121 15-04-2009 00:10:18 13.6 C 6.71 g/m*3 13.6 C 0 km/h
122 15-04-2009 00:22:18 13.2 C 6.66 g/m*3 13.2 C 0 km/h
123 15-04-2009 00:34:19 13.1 C 6.73 g/m*3 13.1 C 0 km/h
124 15-04-2009 00:46:18 12.9 C 6.76 g/m*3 12.9 C 0 km/h
125 15-04-2009 00:58:18 12.5 C 6.71 g/m*3 12.5 C 0 km/h
Sensor: Nr:Datum:Temp:Abs-Feuchte:Windchill:Wind:
Aussen-T/F 126 15-04-2009 01:11:19 12.3 C 6.73 g/m*3 12.3 C 0 km/h
127 15-04-2009 01:23:19 12.1 C 6.76 g/m*3 12.1 C 0 km/h
128 15-04-2009 01:35:19 11.8 C 6.74 g/m*3 11.8 C 0 km/h
129 15-04-2009 01:47:19 11.7 C 6.69 g/m*3 11.7 C 0 km/h
130 15-04-2009 01:59:19 11.5 C 6.71 g/m*3 11.5 C 0 km/h
131 15-04-2009 02:11:19 11.2 C 6.69 g/m*3 11.2 C 0 km/h
132 15-04-2009 02:23:19 11.2 C 6.79 g/m*3 11.2 C 0 km/h
133 15-04-2009 02:35:19 10.9 C 6.76 g/m*3 10.9 C 0 km/h
134 15-04-2009 02:47:19 10.7 C 6.68 g/m*3 10.7 C 0 km/h
135 15-04-2009 02:59:19 10.6 C 6.73 g/m*3 10.6 C 0 km/h
136 15-04-2009 03:11:19 10.4 C 6.75 g/m*3 10.4 C 0 km/h
137 15-04-2009 03:23:20 10.2 C 6.66 g/m*3 10.2 C 0 km/h
138 15-04-2009 03:35:20 10 C 6.67 g/m*3 10 C 0 km/h
139 15-04-2009 03:47:20 9.8 C 6.68 g/m*3 9.8 C 0 km/h
140 15-04-2009 03:59:20 9.7 C 6.73 g/m*3 9.7 C 0 km/h
141 15-04-2009 04:11:20 9.6 C 6.78 g/m*3 9.6 C 0 km/h
142 15-04-2009 04:23:20 9.4 C 6.78 g/m*3 9.4 C 0 km/h
143 15-04-2009 04:35:20 9.3 C 6.83 g/m*3 9.3 C 0 km/h
144 15-04-2009 04:47:20 9.3 C 6.83 g/m*3 9.3 C 0 km/h
145 15-04-2009 04:59:20 9 C 6.7 g/m*3 9 C 0 km/h
146 15-04-2009 05:11:20 8.9 C 6.75 g/m*3 8.9 C 0 km/h
147 15-04-2009 05:23:20 8.9 C 6.75 g/m*3 8.9 C 0 km/h
148 15-04-2009 05:35:20 8.7 C 6.66 g/m*3 8.7 C 0 km/h
149 15-04-2009 05:47:20 8.6 C 6.62 g/m*3 8.6 C 0 km/h
150 15-04-2009 05:59:20 8.5 C 6.57 g/m*3 8.5 C 0 km/h
Sensor: Nr:Datum:Temp:Abs-Feuchte:Windchill:Wind:
Aussen-T/F 151 15-04-2009 06:11:20 8.3 C 6.66 g/m*3 8.3 C 0 km/h
152 15-04-2009 06:23:20 8.2 C 6.62 g/m*3 8.2 C 0 km/h
153 15-04-2009 06:35:20 8.1 C 6.57 g/m*3 8.1 C 0 km/h
154 15-04-2009 06:47:20 8.1 C 6.57 g/m*3 8.1 C 0 km/h
155 15-04-2009 06:59:20 8 C 6.61 g/m*3 8 C 0 km/h
156 15-04-2009 07:11:21 8 C 6.61 g/m*3 8 C 0 km/h
157 15-04-2009 07:23:21 8 C 6.61 g/m*3 8 C 0 km/h
158 15-04-2009 07:35:21 8.1 C 6.66 g/m*3 8.1 C 0 km/h
159 15-04-2009 07:47:21 8.3 C 6.74 g/m*3 8.3 C 0 km/h
160 15-04-2009 07:59:21 8.4 C 6.79 g/m*3 8.4 C 0 km/h
161 15-04-2009 08:11:21 8.6 C 6.87 g/m*3 8.6 C 0 km/h
162 15-04-2009 08:23:21 8.7 C 6.92 g/m*3 8.7 C 0 km/h
163 15-04-2009 08:35:21 9.1 C 7.01 g/m*3 9.1 C 0 km/h
164 15-04-2009 08:47:21 9.4 C 7.05 g/m*3 9.4 C 0 km/h
165 15-04-2009 08:59:21 9.8 C 7.24 g/m*3 9.8 C 0 km/h
166 15-04-2009 09:11:19 10.2 C 7.14 g/m*3 10.2 C 0 km/h
167 15-04-2009 09:23:18 10.6 C 7.32 g/m*3 10.6 C 0 km/h
168 15-04-2009 09:35:19 11.1 C 7.35 g/m*3 11.1 C 0 km/h
169 15-04-2009 09:47:18 11.8 C 7.58 g/m*3 11.8 C 0 km/h
170 15-04-2009 09:59:18 12.3 C 7.38 g/m*3 12.3 C 0 km/h
171 15-04-2009 10:11:18 12.6 C 7.41 g/m*3 12.6 C 0 km/h
172 15-04-2009 10:23:19 13.3 C 7.51 g/m*3 13.3 C 0 km/h
173 15-04-2009 10:35:18 14 C 7.48 g/m*3 14 C 0 km/h
174 15-04-2009 10:47:18 14.7 C 7.68 g/m*3 14.7 C 0 km/h
175 15-04-2009 10:59:18 15.4 C 7.75 g/m*3 15.4 C 0 km/h
Sensor: Nr:Datum:Temp:Abs-Feuchte:Windchill:Wind:
Aussen-T/F 176 15-04-2009 11:11:18 16.2 C 7.58 g/m*3 16.2 C 0 km/h
177 15-04-2009 11:23:18 17 C 7.67 g/m*3 17 C 0 km/h
178 15-04-2009 11:35:17 17.6 C 7.5 g/m*3 17.6 C 0 km/h
179 15-04-2009 11:47:17 18.5 C 7.59 g/m*3 18.5 C 0 km/h
180 15-04-2009 11:59:17 19.4 C 7.67 g/m*3 19.4 C 0 km/h
181 15-04-2009 12:11:17 20.4 C 7.25 g/m*3 20.4 C 0 km/h
182 15-04-2009 12:23:17 21 C 7.14 g/m*3 21 C 0 km/h
183 15-04-2009 12:35:17 21.6 C 7.02 g/m*3 21.6 C 0 km/h
184 15-04-2009 12:47:17 22.5 C 6.79 g/m*3 22.5 C 0 km/h
185 15-04-2009 12:59:17 23 C 5.14 g/m*3 23 C 0 km/h
186 15-04-2009 13:11:17 23.8 C 5.38 g/m*3 23.8 C 0 km/h
187 15-04-2009 13:23:16 24.4 C 4.45 g/m*3 24.4 C 0 km/h
188 15-04-2009 13:35:16 24.9 C 4.58 g/m*3 24.9 C 0 km/h
189 15-04-2009 13:47:16 25.1 C 4.63 g/m*3 25.1 C 0 km/h
190 15-04-2009 13:59:16 25.7 C 4.79 g/m*3 25.7 C 0 km/h
191 15-04-2009 14:11:16 26.3 C 4.95 g/m*3 26.3 C 0 km/h
192 15-04-2009 14:23:15 26.4 C 4.98 g/m*3 26.4 C 0 km/h
193 15-04-2009 14:35:16 27 C 5.15 g/m*3 27 C 0 km/h
194 15-04-2009 14:47:16 27.5 C 5.29 g/m*3 27.5 C 0 km/h
195 15-04-2009 14:59:16 27.3 C 5.23 g/m*3 27.3 C 0 km/h
196 15-04-2009 15:11:15 27.7 C 5.35 g/m*3 27.7 C 0 km/h
197 15-04-2009 15:23:16 27.5 C 5.29 g/m*3 27.5 C 0 km/h
198 15-04-2009 15:35:15 27.8 C 5.38 g/m*3 27.8 C 0 km/h
199 15-04-2009 15:47:15 28.6 C 5.62 g/m*3 28.6 C 0 km/h
200 15-04-2009 15:59:15 29.2 C 5.81 g/m*3 29.2 C 0 km/h
Sensor: Nr:Datum:Temp:Abs-Feuchte:Windchill:Wind:
Aussen-T/F 201 15-04-2009 16:11:15 28.5 C 5.59 g/m*3 28.5 C 0 km/h
202 15-04-2009 16:23:15 29.2 C 5.81 g/m*3 29.2 C 0 km/h
203 15-04-2009 16:35:15 28.6 C 5.62 g/m*3 28.6 C 0 km/h
204 15-04-2009 16:47:15 27.8 C 5.38 g/m*3 27.8 C 0 km/h
205 15-04-2009 16:59:15 28.4 C 5.56 g/m*3 28.4 C 0 km/h
206 15-04-2009 17:11:14 29.1 C 5.78 g/m*3 29.1 C 0 km/h
207 15-04-2009 17:23:14 28.1 C 5.47 g/m*3 28.1 C 0 km/h
208 15-04-2009 17:35:14 28.2 C 5.5 g/m*3 28.2 C 0 km/h
209 15-04-2009 17:47:14 28.3 C 5.53 g/m*3 28.3 C 0 km/h
210 15-04-2009 17:59:14 27 C 5.15 g/m*3 27 C 0 km/h
211 15-04-2009 18:11:14 26.4 C 4.98 g/m*3 26.4 C 0 km/h
212 15-04-2009 18:23:13 26.1 C 4.9 g/m*3 26.1 C 0 km/h
213 15-04-2009 18:35:14 25.6 C 4.76 g/m*3 25.6 C 0 km/h
214 15-04-2009 18:47:13 25.1 C 4.63 g/m*3 25.1 C 0 km/h
215 15-04-2009 18:59:13 24.2 C 4.62 g/m*3 24.2 C 0 km/h
216 15-04-2009 19:11:13 23.7 C 4.92 g/m*3 23.7 C 0 km/h
217 15-04-2009 19:23:13 22.9 C 5.11 g/m*3 22.9 C 0 km/h
218 15-04-2009 19:35:13 22.1 C 4.88 g/m*3 22.1 C 0 km/h
219 15-04-2009 19:47:13 21.3 C 4.66 g/m*3 21.3 C 0 km/h
220 15-04-2009 19:59:13 20.8 C 4.89 g/m*3 20.8 C 0 km/h
221 15-04-2009 20:11:13 20.3 C 4.75 g/m*3 20.3 C 0 km/h
222 15-04-2009 20:23:13 19.7 C 5.26 g/m*3 19.7 C 0 km/h
223 15-04-2009 20:35:12 19.1 C 5.08 g/m*3 19.1 C 0 km/h
224 15-04-2009 20:47:12 18.7 C 5.12 g/m*3 18.7 C 0 km/h
225 15-04-2009 20:59:12 18.5 C 4.9 g/m*3 18.5 C 0 km/h
Sensor: Nr:Datum:Temp:Abs-Feuchte:Windchill:Wind:
Aussen-T/F 226 15-04-2009 21:11:13 18.2 C 5.28 g/m*3 18.2 C 0 km/h
227 15-04-2009 21:23:12 18 C 5.22 g/m*3 18 C 0 km/h
228 15-04-2009 21:35:12 17.7 C 4.98 g/m*3 17.7 C 0 km/h
229 15-04-2009 21:47:11 17.3 C 5.3 g/m*3 17.3 C 0 km/h
230 15-04-2009 21:59:11 17 C 5.35 g/m*3 17 C 0 km/h
231 15-04-2009 22:11:12 16.6 C 5.37 g/m*3 16.6 C 0 km/h
232 15-04-2009 22:23:11 16.3 C 5.41 g/m*3 16.3 C 0 km/h
233 15-04-2009 22:35:11 16 C 5.31 g/m*3 16 C 0 km/h
234 15-04-2009 22:48:13 15.8 C 5.38 g/m*3 15.8 C 0 km/h
235 15-04-2009 23:00:13 15.7 C 5.49 g/m*3 15.7 C 0 km/h
236 15-04-2009 23:12:13 15.6 C 5.32 g/m*3 15.6 C 0 km/h
237 15-04-2009 23:24:13 15.2 C 5.32 g/m*3 15.2 C 0 km/h
238 15-04-2009 23:36:13 15.1 C 5.42 g/m*3 15.1 C 0 km/h
239 15-04-2009 23:48:13 14.8 C 5.57 g/m*3 14.8 C 0 km/h
240 16-04-2009 00:00:13 14.3 C 5.53 g/m*3 14.3 C 0 km/h
241 16-04-2009 00:12:14 14.1 C 5.7 g/m*3 14.1 C 0 km/h
242 16-04-2009 00:24:14 13.8 C 6.08 g/m*3 13.8 C 0 km/h
243 16-04-2009 00:36:14 13.6 C 5.88 g/m*3 13.6 C 0 km/h
244 16-04-2009 00:48:14 13.3 C 5.78 g/m*3 13.3 C 0 km/h
245 16-04-2009 01:00:14 13.1 C 5.71 g/m*3 13.1 C 0 km/h
246 16-04-2009 01:12:14 12.9 C 5.86 g/m*3 12.9 C 0 km/h
247 16-04-2009 01:24:14 12.7 C 5.9 g/m*3 12.7 C 0 km/h
248 16-04-2009 01:36:14 12.6 C 5.97 g/m*3 12.6 C 0 km/h
249 16-04-2009 01:48:14 12.6 C 5.97 g/m*3 12.6 C 0 km/h
250 16-04-2009 02:00:14 12.6 C 5.97 g/m*3 12.6 C 0 km/h
Sensor: Nr:Datum:Temp:Abs-Feuchte:Windchill:Wind:
Aussen-T/F 251 16-04-2009 02:12:14 12.3 C 5.97 g/m*3 12.3 C 0 km/h
252 16-04-2009 02:24:14 12.2 C 6.04 g/m*3 12.2 C 0 km/h
253 16-04-2009 02:36:14 12 C 6.07 g/m*3 12 C 0 km/h
254 16-04-2009 02:48:14 11.7 C 6.07 g/m*3 11.7 C 0 km/h
255 16-04-2009 03:00:14 11.5 C 6.09 g/m*3 11.5 C 0 km/h
256 16-04-2009 03:12:14 11.4 C 6.16 g/m*3 11.4 C 0 km/h
257 16-04-2009 03:24:14 11.2 C 6.18 g/m*3 11.2 C 0 km/h
258 16-04-2009 03:36:14 11.1 C 6.14 g/m*3 11.1 C 0 km/h
259 16-04-2009 03:48:14 11.2 C 6.39 g/m*3 11.2 C 0 km/h
260 16-04-2009 04:00:14 11.2 C 6.39 g/m*3 11.2 C 0 km/h
261 16-04-2009 04:12:14 12.6 C 5.97 g/m*3 12.6 C 0 km/h
262 16-04-2009 04:24:15 13 C 5.9 g/m*3 13 C 0 km/h
263 16-04-2009 04:36:15 12.9 C 5.97 g/m*3 12.9 C 0 km/h
264 16-04-2009 04:48:15 12.4 C 6.01 g/m*3 12.4 C 0 km/h
265 16-04-2009 05:00:15 12.1 C 5.9 g/m*3 12.1 C 0 km/h
266 16-04-2009 05:12:15 11.7 C 5.96 g/m*3 11.7 C 0 km/h
267 16-04-2009 05:24:15 11.3 C 5.92 g/m*3 11.3 C 0 km/h
268 16-04-2009 05:36:15 11.2 C 6.08 g/m*3 11.2 C 0 km/h
269 16-04-2009 05:48:15 11.1 C 6.04 g/m*3 11.1 C 0 km/h
270 16-04-2009 06:00:15 11.1 C 6.14 g/m*3 11.1 C 0 km/h
271 16-04-2009 06:12:15 11.1 C 6.25 g/m*3 11.1 C 0 km/h
272 16-04-2009 06:24:15 11.1 C 6.35 g/m*3 11.1 C 0 km/h
273 16-04-2009 06:36:15 11.1 C 6.35 g/m*3 11.1 C 0 km/h
274 16-04-2009 06:48:15 11.1 C 6.25 g/m*3 11.1 C 0 km/h
275 16-04-2009 07:00:15 10.9 C 6.27 g/m*3 10.9 C 0 km/h
Sensor: Nr:Datum:Temp:Abs-Feuchte:Windchill:Wind:
Aussen-T/F 276 16-04-2009 07:12:15 10.8 C 6.42 g/m*3 10.8 C 0 km/h
277 16-04-2009 07:24:15 10.7 C 6.38 g/m*3 10.7 C 0 km/h
278 16-04-2009 07:36:13 10.8 C 6.33 g/m*3 10.8 C 0 km/h
279 16-04-2009 07:48:12 10.8 C 6.23 g/m*3 10.8 C 0 km/h
280 16-04-2009 08:00:12 11 C 6.21 g/m*3 11 C 0 km/h
281 16-04-2009 08:12:12 11 C 6.11 g/m*3 11 C 0 km/h
282 16-04-2009 08:24:12 11.4 C 6.26 g/m*3 11.4 C 0 km/h
283 16-04-2009 08:36:12 12 C 6.18 g/m*3 12 C 0 km/h
284 16-04-2009 08:48:11 12.3 C 6.19 g/m*3 12.3 C 0 km/h
285 16-04-2009 09:00:12 12.6 C 6.31 g/m*3 12.6 C 0 km/h
286 16-04-2009 09:12:12 13 C 6.24 g/m*3 13 C 0 km/h
287 16-04-2009 09:24:12 13.4 C 6.39 g/m*3 13.4 C 0 km/h
288 16-04-2009 09:36:11 13.9 C 6.47 g/m*3 13.9 C 0 km/h
289 16-04-2009 09:48:12 14.5 C 6.59 g/m*3 14.5 C 0 km/h
290 16-04-2009 10:00:11 15 C 6.54 g/m*3 15 C 0 km/h
291 16-04-2009 10:12:11 15.6 C 6.52 g/m*3 15.6 C 0 km/h
292 16-04-2009 10:24:11 16 C 6.4 g/m*3 16 C 0 km/h
293 16-04-2009 10:36:10 16.4 C 6.42 g/m*3 16.4 C 0 km/h
294 16-04-2009 10:48:11 16.7 C 6.54 g/m*3 16.7 C 0 km/h
295 16-04-2009 11:00:10 17.4 C 6.67 g/m*3 17.4 C 0 km/h
296 16-04-2009 11:12:10 17.9 C 6.72 g/m*3 17.9 C 0 km/h
297 16-04-2009 11:24:10 18.3 C 6.41 g/m*3 18.3 C 0 km/h
298 16-04-2009 11:36:11 19.2 C 6.76 g/m*3 19.2 C 0 km/h
299 16-04-2009 11:48:10 19.2 C 6.43 g/m*3 19.2 C 0 km/h
300 16-04-2009 12:00:10 19.2 C 6.6 g/m*3 19.2 C 0 km/h
Sensor: Nr:Datum:Temp:Abs-Feuchte:Windchill:Wind:
Aussen-T/F 301 16-04-2009 12:12:10 19.5 C 6.38 g/m*3 19.5 C 0 km/h
302 16-04-2009 12:24:10 19.3 C 6.3 g/m*3 19.3 C 0 km/h
303 16-04-2009 12:36:10 20 C 6.05 g/m*3 20 C 0 km/h
304 16-04-2009 12:48:09 19.7 C 6.11 g/m*3 19.7 C 0 km/h
305 16-04-2009 13:00:09 20.8 C 6.34 g/m*3 20.8 C 0 km/h
306 16-04-2009 13:12:09 21.3 C 6.15 g/m*3 21.3 C 0 km/h
307 16-04-2009 13:24:09 21.8 C 5.95 g/m*3 21.8 C 0 km/h
308 16-04-2009 13:36:10 21.6 C 5.5 g/m*3 21.6 C 0 km/h
309 16-04-2009 13:48:09 20.2 C 5.6 g/m*3 20.2 C 0 km/h
310 16-04-2009 14:00:09 21.1 C 5.9 g/m*3 21.1 C 0 km/h
311 16-04-2009 14:12:09 20.6 C 5.55 g/m*3 20.6 C 0 km/h
312 16-04-2009 14:24:08 20.6 C 5.55 g/m*3 20.6 C 0 km/h
313 16-04-2009 14:36:08 21.3 C 5.59 g/m*3 21.3 C 0 km/h
314 16-04-2009 14:48:09 21.9 C 5.21 g/m*3 21.9 C 0 km/h
315 16-04-2009 15:00:08 21.6 C 5.31 g/m*3 21.6 C 0 km/h
316 16-04-2009 15:12:08 21.9 C 5.21 g/m*3 21.9 C 0 km/h
317 16-04-2009 15:24:08 21.2 C 5.37 g/m*3 21.2 C 0 km/h
318 16-04-2009 15:36:08 20.9 C 5.65 g/m*3 20.9 C 0 km/h
319 16-04-2009 15:48:08 20 C 6.57 g/m*3 20 C 0 km/h
320 16-04-2009 16:00:07 19.5 C 7.05 g/m*3 19.5 C 0 km/h
321 16-04-2009 16:12:07 19.2 C 6.93 g/m*3 19.2 C 0 km/h
322 16-04-2009 16:24:07 19.1 C 6.88 g/m*3 19.1 C 0 km/h
323 16-04-2009 16:36:08 19 C 6.84 g/m*3 19 C 0 km/h
324 16-04-2009 16:48:07 18.9 C 6.97 g/m*3 18.9 C 0 km/h
325 16-04-2009 17:00:07 18.5 C 7.12 g/m*3 18.5 C 0 km/h
Sensor: Nr:Datum:Temp:Abs-Feuchte:Windchill:Wind:
Aussen-T/F 326 16-04-2009 17:12:07 18.1 C 6.95 g/m*3 18.1 C 0 km/h
327 16-04-2009 17:24:07 18.1 C 7.11 g/m*3 18.1 C 0 km/h
328 16-04-2009 17:36:07 17.9 C 7.02 g/m*3 17.9 C 0 km/h
329 16-04-2009 17:48:06 17.8 C 7.13 g/m*3 17.8 C 0 km/h
330 16-04-2009 18:00:07 17.8 C 7.13 g/m*3 17.8 C 0 km/h
331 16-04-2009 18:12:08 17.2 C 7.32 g/m*3 17.2 C 0 km/h
332 16-04-2009 18:24:06 16.3 C 7.35 g/m*3 16.3 C 0 km/h
333 16-04-2009 18:36:06 15.7 C 7.89 g/m*3 15.7 C 0 km/h
334 16-04-2009 18:48:06 15.3 C 8.1 g/m*3 15.3 C 0 km/h
335 16-04-2009 19:00:06 15.1 C 7.87 g/m*3 15.1 C 0 km/h
336 16-04-2009 19:12:06 15.2 C 7.79 g/m*3 15.2 C 0 km/h
337 16-04-2009 19:24:06 14.5 C 7.71 g/m*3 14.5 C 0 km/h
338 16-04-2009 19:36:05 14.3 C 7.74 g/m*3 14.3 C 0 km/h
339 16-04-2009 19:48:06 14.1 C 7.89 g/m*3 14.1 C 0 km/h
340 16-04-2009 20:00:05 13.8 C 8.1 g/m*3 13.8 C 0 km/h
341 16-04-2009 20:12:05 13.4 C 8.02 g/m*3 13.4 C 0 km/h
342 16-04-2009 20:24:05 13.1 C 7.99 g/m*3 13.1 C 0 km/h
343 16-04-2009 20:36:05 13.3 C 8.09 g/m*3 13.3 C 0 km/h
344 16-04-2009 20:48:05 13.2 C 8.04 g/m*3 13.2 C 0 km/h
345 16-04-2009 21:00:05 13.1 C 7.99 g/m*3 13.1 C 0 km/h
346 16-04-2009 21:12:05 13 C 8.05 g/m*3 13 C 0 km/h
347 16-04-2009 21:24:04 12.9 C 8.11 g/m*3 12.9 C 0 km/h
348 16-04-2009 21:36:05 13 C 8.05 g/m*3 13 C 0 km/h
349 16-04-2009 21:48:04 13.2 C 7.92 g/m*3 13.2 C 0 km/h
350 16-04-2009 22:00:04 13.2 C 7.92 g/m*3 13.2 C 0 km/h
Sensor: Nr:Datum:Temp:Abs-Feuchte:Windchill:Wind:
Aussen-T/F 351 16-04-2009 22:12:04 13.1 C 7.87 g/m*3 13.1 C 0 km/h
352 16-04-2009 22:24:03 13.1 C 7.87 g/m*3 13.1 C 0 km/h
353 16-04-2009 22:37:05 13.1 C 7.87 g/m*3 13.1 C 0 km/h
354 16-04-2009 22:49:05 13.1 C 7.87 g/m*3 13.1 C 0 km/h
355 16-04-2009 23:01:06 12.9 C 7.78 g/m*3 12.9 C 0 km/h
356 16-04-2009 23:13:06 12.8 C 7.84 g/m*3 12.8 C 0 km/h
357 16-04-2009 23:25:06 12.8 C 7.84 g/m*3 12.8 C 0 km/h
358 16-04-2009 23:37:06 12.7 C 7.79 g/m*3 12.7 C 0 km/h
359 16-04-2009 23:49:06 12.6 C 7.74 g/m*3 12.6 C 0 km/h

Legende:
   Min
   Max


Maximal/Minimal-Werte vom 14.04.2009 - 16.04.2009

Sensor Min Max Avg
Temp
(Aussen-T/F)
8 °C
15-04-2009  06:59:20
29.2 °C
15-04-2009  15:59:15
16.01 °C
Abs-Feuchte
(Aussen-T/F)
4.45 g/m*3
15-04-2009  13:23:16
9 g/m*3
14-04-2009  00:10:41
6.71 g/m*3
Windchill
(Aussen-T/F)
8 C
15-04-2009  06:59:20
29.2 C
15-04-2009  15:59:15
15.97 C

Die Daten stammen von einer Davis Vantage Pro 2 Wetter-Station und werden unter Linux mit der Software wview2wettercgi und aufbereitet. Alle Angaben erfolgen ohne Gewähr für ihre Vollständigkeit oder Richtigkeit.
Kontakt: Rainer Krienke krienke@uni-koblenz.de . Meine Webseiten an der Uni Koblenz oder privat.
Version: $Revision: 0.78 $